createdAt,value
2022-10-10T00:01:21.440Z,21.20
2022-10-10T00:03:48.857Z,21.20
2022-10-10T00:06:16.884Z,21.20
2022-10-10T00:08:44.550Z,21.20
2022-10-10T00:11:13.188Z,21.20
2022-10-10T00:13:40.925Z,21.30
2022-10-10T00:16:08.637Z,21.20
2022-10-10T00:18:36.466Z,21.20
2022-10-10T00:21:04.166Z,21.20
2022-10-10T00:23:31.577Z,21.20
2022-10-10T00:25:59.034Z,21.20
2022-10-10T00:28:26.947Z,21.30
2022-10-10T00:30:54.223Z,21.20
2022-10-10T00:33:21.596Z,21.30
2022-10-10T00:35:49.513Z,21.20
2022-10-10T00:38:17.104Z,21.20
2022-10-10T00:40:49.993Z,21.20
2022-10-10T00:43:18.387Z,21.20
2022-10-10T00:45:47.637Z,21.20
2022-10-10T00:48:22.441Z,21.20
2022-10-10T00:50:58.986Z,21.20
2022-10-10T00:53:30.499Z,21.20
2022-10-10T00:55:59.530Z,21.20
2022-10-10T00:58:26.924Z,21.20
2022-10-10T01:00:55.245Z,21.20
2022-10-10T01:03:22.575Z,21.20
2022-10-10T01:05:51.047Z,21.20
2022-10-10T01:08:19.576Z,21.10
2022-10-10T01:11:41.644Z,21.20
2022-10-10T01:14:27.763Z,21.20
2022-10-10T01:17:26.892Z,21.10
2022-10-10T01:20:09.140Z,21.20
2022-10-10T01:22:48.286Z,21.20
2022-10-10T01:25:27.311Z,21.20
2022-10-10T01:28:06.287Z,21.20
2022-10-10T01:30:35.244Z,21.20
2022-10-10T01:33:08.515Z,21.20
2022-10-10T01:36:02.083Z,21.20
2022-10-10T01:38:50.788Z,21.20
2022-10-10T01:41:41.201Z,21.10
2022-10-10T01:44:08.503Z,21.00
2022-10-10T01:46:35.842Z,21.00
2022-10-10T01:49:03.469Z,21.00
2022-10-10T01:51:51.596Z,20.90
2022-10-10T01:54:53.660Z,20.80
2022-10-10T01:57:25.123Z,20.90
2022-10-10T02:00:09.801Z,20.90
2022-10-10T02:03:01.651Z,20.90
2022-10-10T02:05:53.886Z,20.90
2022-10-10T02:08:41.411Z,20.90
2022-10-10T02:11:10.698Z,20.80
2022-10-10T02:13:43.218Z,20.80
2022-10-10T02:16:34.832Z,20.80
2022-10-10T02:19:06.576Z,20.80
2022-10-10T02:21:34.709Z,20.80
2022-10-10T02:24:05.951Z,20.70
2022-10-10T02:26:34.945Z,20.80
2022-10-10T02:29:15.685Z,20.80
2022-10-10T02:32:11.305Z,20.70
2022-10-10T02:35:41.362Z,20.70
2022-10-10T02:38:12.451Z,20.80
2022-10-10T02:40:42.361Z,20.80
2022-10-10T02:43:11.291Z,20.80
2022-10-10T02:45:40.299Z,20.80
2022-10-10T02:48:07.660Z,20.80
2022-10-10T02:50:35.645Z,20.70
2022-10-10T02:53:02.906Z,20.60
2022-10-10T02:55:30.205Z,20.50
2022-10-10T02:57:57.459Z,20.50
2022-10-10T03:00:24.736Z,20.50
2022-10-10T03:02:52.313Z,20.50
2022-10-10T03:05:20.000Z,20.40
2022-10-10T03:07:47.691Z,20.40
2022-10-10T03:10:15.074Z,20.40
2022-10-10T03:12:42.342Z,20.40
2022-10-10T03:15:11.910Z,20.40
2022-10-10T03:17:39.909Z,20.40
2022-10-10T03:20:08.668Z,20.50
2022-10-10T03:22:36.027Z,20.40
2022-10-10T03:25:04.122Z,20.40
2022-10-10T03:27:31.446Z,20.50
2022-10-10T03:29:58.728Z,20.50
2022-10-10T03:32:26.125Z,20.50
2022-10-10T03:34:53.970Z,20.40
2022-10-10T03:37:21.329Z,20.40
2022-10-10T03:39:48.705Z,20.50
2022-10-10T03:42:15.989Z,20.40
2022-10-10T03:44:43.459Z,20.40
2022-10-10T03:47:11.073Z,20.40
2022-10-10T03:49:38.359Z,20.30
2022-10-10T03:52:05.792Z,20.40
2022-10-10T03:54:33.072Z,20.40
2022-10-10T03:57:00.384Z,20.30
2022-10-10T03:59:27.787Z,20.30
2022-10-10T04:01:55.582Z,20.30
2022-10-10T04:04:22.970Z,20.40
2022-10-10T04:06:50.280Z,20.40
2022-10-10T04:09:17.551Z,20.30
2022-10-10T04:11:44.900Z,20.40
2022-10-10T04:14:12.270Z,20.30
2022-10-10T04:16:39.545Z,20.30
2022-10-10T04:19:06.925Z,20.30
2022-10-10T04:21:34.617Z,20.20
2022-10-10T04:24:01.979Z,20.20
2022-10-10T04:26:29.269Z,20.20
2022-10-10T04:28:56.716Z,20.20
2022-10-10T04:31:24.693Z,20.20
2022-10-10T04:33:52.652Z,20.20
2022-10-10T04:36:20.069Z,20.20
2022-10-10T04:38:47.603Z,20.20
2022-10-10T04:41:15.037Z,20.20
2022-10-10T04:43:42.425Z,20.20
2022-10-10T04:46:09.735Z,20.20
2022-10-10T04:48:37.651Z,20.20
2022-10-10T04:51:05.126Z,20.20
2022-10-10T04:53:32.488Z,20.20
2022-10-10T04:55:59.801Z,20.10
2022-10-10T04:58:27.124Z,20.10
2022-10-10T05:00:55.311Z,20.10
2022-10-10T05:03:23.876Z,20.10
2022-10-10T05:05:51.755Z,20.20
2022-10-10T05:08:20.163Z,20.10
2022-10-10T05:10:47.724Z,20.20
2022-10-10T05:13:16.235Z,20.20
2022-10-10T05:15:43.733Z,20.20
2022-10-10T05:18:11.054Z,20.30
2022-10-10T05:20:38.405Z,20.30
2022-10-10T05:23:05.730Z,20.30
2022-10-10T05:25:33.302Z,20.20
2022-10-10T05:28:00.678Z,20.20
2022-10-10T05:30:28.109Z,20.10
2022-10-10T05:32:55.608Z,20.10
2022-10-10T05:35:22.870Z,20.10
2022-10-10T05:37:50.203Z,20.10
2022-10-10T05:40:17.631Z,20.10
2022-10-10T05:42:44.909Z,20.10
2022-10-10T05:45:12.269Z,20.00
2022-10-10T05:47:39.566Z,20.00
2022-10-10T05:50:11.347Z,20.00
2022-10-10T05:52:38.671Z,20.00
2022-10-10T05:55:06.203Z,20.00
2022-10-10T05:57:33.440Z,20.00
2022-10-10T06:00:00.683Z,20.00
2022-10-10T06:02:27.934Z,20.00
2022-10-10T06:04:55.280Z,20.00
2022-10-10T06:07:22.529Z,20.00
2022-10-10T06:09:49.750Z,20.00
2022-10-10T06:12:17.003Z,20.10
2022-10-10T06:14:44.311Z,20.10
2022-10-10T06:17:11.681Z,20.10
2022-10-10T06:19:38.993Z,20.10
2022-10-10T06:22:06.296Z,20.10
2022-10-10T06:24:33.665Z,20.10
2022-10-10T06:27:00.946Z,20.10
2022-10-10T06:29:28.458Z,20.10
2022-10-10T06:31:55.783Z,20.10
2022-10-10T06:34:23.059Z,20.10
2022-10-10T06:36:52.033Z,20.10
2022-10-10T06:39:19.464Z,20.10
2022-10-10T06:41:49.352Z,20.10
2022-10-10T06:44:19.135Z,20.10
2022-10-10T06:46:46.421Z,20.10
2022-10-10T06:49:13.725Z,20.10
2022-10-10T06:51:41.024Z,20.20
2022-10-10T06:54:08.327Z,20.20
2022-10-10T06:56:35.639Z,20.10
2022-10-10T06:59:03.056Z,20.10
2022-10-10T07:01:30.438Z,20.00
2022-10-10T07:03:57.735Z,20.00
2022-10-10T07:06:25.246Z,20.00
2022-10-10T07:08:52.551Z,20.10
2022-10-10T07:11:19.915Z,20.00
2022-10-10T07:13:47.324Z,20.00
2022-10-10T07:16:14.555Z,20.10
2022-10-10T07:18:41.856Z,20.10
2022-10-10T07:21:09.888Z,20.20
2022-10-10T07:23:37.235Z,20.20
2022-10-10T07:26:08.024Z,20.20
2022-10-10T07:28:35.391Z,20.30
2022-10-10T07:31:05.596Z,20.30
2022-10-10T07:33:34.854Z,20.30
2022-10-10T07:36:02.183Z,20.30
2022-10-10T07:38:29.696Z,20.40
2022-10-10T07:40:56.953Z,20.40
2022-10-10T07:43:24.323Z,20.50
2022-10-10T07:45:51.644Z,20.50
2022-10-10T07:48:18.962Z,20.50
2022-10-10T07:50:46.462Z,20.50
2022-10-10T07:53:13.963Z,20.50
2022-10-10T07:55:43.046Z,20.50
2022-10-10T07:58:13.599Z,20.30
2022-10-10T08:00:42.121Z,20.30
2022-10-10T08:03:12.091Z,20.30
2022-10-10T08:05:41.308Z,20.30
2022-10-10T08:08:09.870Z,20.40
2022-10-10T08:10:37.656Z,20.40
2022-10-10T08:13:05.167Z,20.30
2022-10-10T08:15:51.651Z,20.30
2022-10-10T08:18:19.631Z,20.10
2022-10-10T08:20:47.050Z,20.20
2022-10-10T08:23:14.323Z,20.20
2022-10-10T08:25:41.587Z,20.30
2022-10-10T08:28:09.348Z,20.40
2022-10-10T08:30:41.293Z,20.50
2022-10-10T08:33:08.714Z,20.50
2022-10-10T08:35:39.870Z,20.50
2022-10-10T08:38:07.268Z,20.50
2022-10-10T08:40:42.274Z,20.60
2022-10-10T08:43:16.894Z,20.70
2022-10-10T08:45:44.602Z,20.60
2022-10-10T08:48:16.479Z,20.60
2022-10-10T08:50:49.181Z,20.70
2022-10-10T08:53:32.362Z,20.70
2022-10-10T08:56:01.093Z,20.60
2022-10-10T08:58:37.253Z,20.60
2022-10-10T09:01:16.452Z,20.60
2022-10-10T09:03:57.393Z,20.70
2022-10-10T09:07:06.426Z,20.80
2022-10-10T09:09:51.836Z,20.90
2022-10-10T09:12:40.110Z,20.90
2022-10-10T09:15:33.913Z,21.00
2022-10-10T09:18:01.146Z,21.00
2022-10-10T09:20:45.911Z,21.10
2022-10-10T09:23:32.375Z,21.20
2022-10-10T09:26:06.419Z,21.20
2022-10-10T09:28:54.300Z,21.20
2022-10-10T09:31:38.683Z,21.30
2022-10-10T09:34:18.983Z,21.40
2022-10-10T09:36:48.070Z,21.60
2022-10-10T09:39:34.579Z,21.50
2022-10-10T09:42:04.545Z,21.70
2022-10-10T09:44:32.624Z,22.10
2022-10-10T09:47:00.683Z,22.20
2022-10-10T09:49:29.678Z,22.20
2022-10-10T09:51:57.113Z,22.20
2022-10-10T09:54:25.170Z,22.40
2022-10-10T09:56:58.094Z,22.60
2022-10-10T09:59:43.047Z,22.80
2022-10-10T10:02:17.730Z,23.00
2022-10-10T10:04:45.911Z,23.20
2022-10-10T10:07:25.471Z,23.40
2022-10-10T10:09:57.512Z,23.60
2022-10-10T10:12:31.999Z,24.00
2022-10-10T10:15:06.225Z,24.30
2022-10-10T10:17:33.663Z,24.70
2022-10-10T10:20:00.981Z,25.00
2022-10-10T10:22:37.282Z,25.10
2022-10-10T10:25:38.862Z,25.40
2022-10-10T10:28:12.958Z,25.50
2022-10-10T10:30:41.581Z,25.80
2022-10-10T10:33:18.115Z,25.90
2022-10-10T10:36:19.398Z,26.40
2022-10-10T10:38:53.057Z,27.30
2022-10-10T10:41:34.447Z,29.00
2022-10-10T10:44:19.949Z,31.00
2022-10-10T10:47:08.680Z,32.70
2022-10-10T10:49:52.566Z,34.50
2022-10-10T10:52:34.053Z,36.40
2022-10-10T10:55:01.285Z,38.00
2022-10-10T10:58:10.530Z,39.10
2022-10-10T11:01:21.073Z,40.20
2022-10-10T11:05:16.503Z,41.10
2022-10-10T11:06:59.925Z,41.70
2022-10-10T11:09:50.216Z,42.00
2022-10-10T11:12:39.116Z,42.10
2022-10-10T11:15:12.132Z,42.60
2022-10-10T11:17:51.803Z,42.70
2022-10-10T11:20:31.405Z,42.30
2022-10-10T11:23:12.254Z,42.70
2022-10-10T11:25:52.425Z,43.40
2022-10-10T11:28:35.750Z,43.90
2022-10-10T11:31:08.801Z,44.40
2022-10-10T11:33:42.075Z,44.60
2022-10-10T11:36:20.992Z,44.90
2022-10-10T11:38:51.289Z,45.20
2022-10-10T11:41:33.996Z,45.50
2022-10-10T11:44:04.961Z,46.10
2022-10-10T11:46:44.290Z,46.50
2022-10-10T11:49:25.150Z,46.80
2022-10-10T11:52:15.039Z,47.00
2022-10-10T11:55:20.295Z,46.80
2022-10-10T11:57:57.486Z,46.50
2022-10-10T12:00:26.129Z,46.50
2022-10-10T12:02:57.340Z,46.80
2022-10-10T12:05:29.109Z,47.30
2022-10-10T12:08:38.780Z,47.40
2022-10-10T12:11:10.055Z,47.60
2022-10-10T12:13:41.627Z,46.20
2022-10-10T12:16:20.645Z,45.10
2022-10-10T12:18:54.755Z,44.00
2022-10-10T12:21:26.785Z,43.00
2022-10-10T12:24:14.024Z,41.60
2022-10-10T12:26:53.099Z,39.70
2022-10-10T12:29:51.353Z,37.50
2022-10-10T12:32:39.796Z,35.40
2022-10-10T12:35:29.759Z,33.80
2022-10-10T12:38:19.772Z,32.40
2022-10-10T12:41:08.752Z,32.00
2022-10-10T12:43:48.279Z,31.70
2022-10-10T12:46:27.763Z,31.40
2022-10-10T12:49:21.222Z,30.90
2022-10-10T12:51:59.765Z,30.40
2022-10-10T12:54:39.900Z,30.00
2022-10-10T12:57:37.283Z,29.80
2022-10-10T13:00:26.160Z,30.10
2022-10-10T13:02:58.670Z,29.90
2022-10-10T13:05:35.850Z,29.60
2022-10-10T13:08:07.006Z,29.00
2022-10-10T13:10:34.522Z,28.70
2022-10-10T13:13:15.764Z,28.30
2022-10-10T13:15:53.094Z,28.00
2022-10-10T13:18:59.731Z,27.90
2022-10-10T13:21:32.126Z,27.60
2022-10-10T13:24:04.885Z,27.50
2022-10-10T13:26:37.391Z,27.40
2022-10-10T13:29:30.982Z,27.30
2022-10-10T13:32:00.529Z,27.30
2022-10-10T13:34:40.114Z,27.10
2022-10-10T13:37:07.607Z,26.90
2022-10-10T13:39:37.955Z,27.00
2022-10-10T13:42:06.070Z,26.70
2022-10-10T13:44:54.149Z,26.80
2022-10-10T13:47:43.867Z,26.90
2022-10-10T13:50:30.076Z,27.00
2022-10-10T13:53:25.132Z,27.00
2022-10-10T13:56:06.822Z,27.00
2022-10-10T13:58:47.973Z,26.90
2022-10-10T14:01:29.999Z,26.90
2022-10-10T14:04:02.772Z,26.80
2022-10-10T14:06:30.794Z,26.70
2022-10-10T14:09:12.083Z,26.50
2022-10-10T14:11:40.711Z,26.30
2022-10-10T14:14:15.186Z,26.30
2022-10-10T14:16:42.495Z,26.30
2022-10-10T14:19:19.283Z,26.30
2022-10-10T14:21:46.656Z,26.10
2022-10-10T14:24:15.433Z,26.20
2022-10-10T14:26:43.489Z,26.20
2022-10-10T14:29:15.450Z,26.20
2022-10-10T14:31:43.906Z,26.10
2022-10-10T14:34:12.354Z,26.10
2022-10-10T14:36:48.486Z,26.10
2022-10-10T14:39:17.850Z,26.00
2022-10-10T14:41:45.878Z,25.90
2022-10-10T14:44:13.467Z,25.90
2022-10-10T14:46:41.706Z,25.90
2022-10-10T14:49:18.414Z,25.80
2022-10-10T14:51:47.115Z,25.80
2022-10-10T14:54:14.930Z,25.70
2022-10-10T14:57:07.532Z,25.70
2022-10-10T14:59:47.955Z,25.70
2022-10-10T15:02:19.631Z,25.60
2022-10-10T15:04:47.006Z,25.60
2022-10-10T15:07:15.659Z,25.60
2022-10-10T15:10:18.888Z,25.50
2022-10-10T15:12:34.070Z,25.60
2022-10-10T15:15:01.535Z,25.50
2022-10-10T15:17:30.465Z,25.50
2022-10-10T15:19:57.805Z,25.50
2022-10-10T15:22:25.180Z,25.50
2022-10-10T15:24:52.401Z,25.50
2022-10-10T15:27:19.708Z,25.50
2022-10-10T15:29:47.005Z,25.50
2022-10-10T15:32:14.243Z,25.40
2022-10-10T15:34:41.518Z,25.30
2022-10-10T15:37:10.471Z,25.30
2022-10-10T15:39:37.955Z,25.30
2022-10-10T15:42:13.312Z,25.30
2022-10-10T15:44:46.768Z,25.30
2022-10-10T15:47:15.847Z,25.30
2022-10-10T15:49:43.469Z,25.20
2022-10-10T15:52:11.012Z,25.10
2022-10-10T15:54:38.815Z,25.10
2022-10-10T15:57:06.273Z,25.10
2022-10-10T15:59:33.623Z,24.90
2022-10-10T16:02:01.854Z,24.90
2022-10-10T16:04:29.208Z,24.80
2022-10-10T16:07:24.188Z,24.80
2022-10-10T16:09:44.089Z,24.70
2022-10-10T16:12:11.699Z,24.70
2022-10-10T16:14:38.977Z,24.70
2022-10-10T16:17:06.299Z,24.60
2022-10-10T16:19:33.663Z,24.60
2022-10-10T16:22:01.052Z,24.50
2022-10-10T16:24:28.391Z,24.50
2022-10-10T16:26:55.908Z,24.40
2022-10-10T16:29:23.159Z,24.40
2022-10-10T16:31:50.437Z,24.30
2022-10-10T16:34:18.774Z,24.30
2022-10-10T16:36:46.147Z,24.30
2022-10-10T16:39:13.567Z,24.20
2022-10-10T16:41:49.172Z,24.10
2022-10-10T16:44:17.682Z,24.10
2022-10-10T16:46:45.264Z,24.00
2022-10-10T16:49:14.234Z,24.00
2022-10-10T16:51:41.575Z,23.90
2022-10-10T16:54:09.055Z,24.00
2022-10-10T16:56:36.384Z,23.90
2022-10-10T16:59:04.128Z,23.90
2022-10-10T17:01:31.585Z,23.90
2022-10-10T17:04:00.184Z,23.80
2022-10-10T17:06:34.815Z,23.80
2022-10-10T17:09:03.466Z,23.70
2022-10-10T17:11:30.711Z,23.70
2022-10-10T17:13:58.436Z,23.70
2022-10-10T17:19:15.657Z,23.60
2022-10-10T17:21:43.133Z,23.50
2022-10-10T17:24:10.429Z,23.50
2022-10-10T17:26:37.871Z,23.50
2022-10-10T17:29:05.207Z,23.40
2022-10-10T17:31:32.727Z,23.40
2022-10-10T17:34:00.012Z,23.30
2022-10-10T17:36:28.489Z,23.30
2022-10-10T17:39:01.886Z,23.30
2022-10-10T17:41:29.952Z,23.20
2022-10-10T17:43:57.454Z,23.30
2022-10-10T17:46:34.851Z,23.20
2022-10-10T17:49:09.065Z,23.20
2022-10-10T17:51:38.305Z,23.20
2022-10-10T17:54:06.977Z,23.20
2022-10-10T17:56:34.724Z,23.20
2022-10-10T17:59:05.477Z,23.20
2022-10-10T18:01:35.056Z,23.20
2022-10-10T18:04:02.596Z,23.20
2022-10-10T18:06:30.693Z,23.20
2022-10-10T18:08:58.841Z,23.10
2022-10-10T18:11:29.075Z,23.00
2022-10-10T18:14:00.563Z,23.00
2022-10-10T18:16:34.334Z,22.90
2022-10-10T18:19:03.692Z,22.90
2022-10-10T18:21:31.527Z,22.90
2022-10-10T18:23:58.946Z,22.80
2022-10-10T18:26:29.558Z,22.80
2022-10-10T18:28:57.661Z,22.80
2022-10-10T18:31:31.066Z,22.80
2022-10-10T18:33:58.969Z,22.70
2022-10-10T18:36:29.826Z,22.70
2022-10-10T18:39:03.076Z,22.70
2022-10-10T18:41:34.323Z,22.60
2022-10-10T18:44:07.660Z,22.60
2022-10-10T18:46:35.245Z,22.50
2022-10-10T18:49:04.546Z,22.50
2022-10-10T18:51:32.161Z,22.50
2022-10-10T18:54:07.524Z,22.50
2022-10-10T18:56:38.073Z,22.40
2022-10-10T18:59:08.014Z,22.40
2022-10-10T19:01:36.784Z,22.30
2022-10-10T19:04:05.963Z,22.20
2022-10-10T19:06:34.166Z,22.20
2022-10-10T19:09:02.292Z,22.10
2022-10-10T19:11:32.759Z,22.00
2022-10-10T19:14:02.355Z,22.00
2022-10-10T19:16:30.910Z,22.00
2022-10-10T19:19:00.116Z,22.00
2022-10-10T19:21:29.687Z,22.00
2022-10-10T19:23:58.747Z,21.90
2022-10-10T19:26:26.401Z,21.90
2022-10-10T19:28:53.789Z,21.90
2022-10-10T19:31:21.227Z,21.90
2022-10-10T19:33:52.219Z,21.90
2022-10-10T19:36:19.560Z,21.90
2022-10-10T19:38:46.991Z,21.80
2022-10-10T19:41:14.841Z,21.80
2022-10-10T19:43:44.381Z,21.70
2022-10-10T19:46:14.410Z,21.60
2022-10-10T19:48:41.880Z,21.60
2022-10-10T19:51:12.368Z,21.60
2022-10-10T19:53:40.931Z,21.50
2022-10-10T19:56:21.938Z,21.50
2022-10-10T19:58:49.234Z,21.40
2022-10-10T20:01:17.825Z,21.40
2022-10-10T20:03:46.518Z,21.30
2022-10-10T20:06:14.901Z,21.30
2022-10-10T20:08:42.387Z,21.30
2022-10-10T20:11:10.029Z,21.30
2022-10-10T20:13:37.518Z,21.20
2022-10-10T20:16:08.897Z,21.20
2022-10-10T20:18:39.519Z,21.20
2022-10-10T20:21:16.303Z,21.20
2022-10-10T20:23:45.815Z,21.10
2022-10-10T20:26:19.291Z,21.00
2022-10-10T20:28:46.941Z,21.00
2022-10-10T20:31:19.875Z,21.00
2022-10-10T20:33:49.239Z,21.00
2022-10-10T20:36:17.124Z,20.90
2022-10-10T20:38:45.063Z,20.90
2022-10-10T20:41:12.425Z,20.90
2022-10-10T20:43:39.820Z,20.90
2022-10-10T20:46:12.224Z,20.80
2022-10-10T20:48:39.975Z,20.80
2022-10-10T20:51:09.867Z,20.80
2022-10-10T20:53:38.521Z,20.80
2022-10-10T20:56:07.506Z,20.80
2022-10-10T20:58:36.861Z,20.70
2022-10-10T21:01:05.583Z,20.70
2022-10-10T21:03:32.892Z,20.70
2022-10-10T21:06:14.744Z,20.60
2022-10-10T21:08:42.609Z,20.60
2022-10-10T21:11:12.336Z,20.60
2022-10-10T21:13:41.864Z,20.60
2022-10-10T21:16:15.822Z,20.60
2022-10-10T21:18:57.113Z,20.60
2022-10-10T21:21:44.226Z,20.50
2022-10-10T21:24:12.771Z,20.50
2022-10-10T21:26:41.585Z,20.50
2022-10-10T21:29:08.937Z,20.50
2022-10-10T21:31:39.458Z,20.50
2022-10-10T21:34:10.098Z,20.50
2022-10-10T21:36:37.446Z,20.50
2022-10-10T21:39:06.900Z,20.40
2022-10-10T21:41:35.153Z,20.40
2022-10-10T21:44:02.469Z,20.40
2022-10-10T21:46:35.863Z,20.30
2022-10-10T21:49:10.067Z,20.30
2022-10-10T21:51:40.944Z,20.30
2022-10-10T21:54:09.441Z,20.30
2022-10-10T21:56:37.672Z,20.30
2022-10-10T21:59:05.645Z,20.30
2022-10-10T22:01:33.416Z,20.20
2022-10-10T22:04:01.834Z,20.30
2022-10-10T22:06:29.491Z,20.20
2022-10-10T22:08:58.989Z,20.20
2022-10-10T22:11:28.179Z,20.10
2022-10-10T22:13:55.584Z,20.10
2022-10-10T22:16:22.961Z,20.10
2022-10-10T22:18:55.580Z,20.10
2022-10-10T22:21:28.019Z,20.10
2022-10-10T22:24:01.367Z,20.10
2022-10-10T22:26:29.665Z,20.10
2022-10-10T22:28:57.392Z,20.10
2022-10-10T22:31:28.221Z,20.10
2022-10-10T22:33:55.816Z,20.10
2022-10-10T22:36:23.226Z,20.10
2022-10-10T22:38:50.479Z,20.10
2022-10-10T22:41:17.827Z,20.00
2022-10-10T22:43:45.340Z,20.00
2022-10-10T22:46:12.717Z,19.90
2022-10-10T22:48:40.110Z,19.90
2022-10-10T22:51:18.325Z,19.90
2022-10-10T22:53:47.369Z,19.90
2022-10-10T22:56:19.164Z,19.90
2022-10-10T22:58:48.476Z,19.80
2022-10-10T23:01:18.641Z,19.80
2022-10-10T23:03:46.303Z,19.90
2022-10-10T23:06:14.353Z,19.80
2022-10-10T23:08:41.797Z,19.80
2022-10-10T23:11:09.097Z,19.80
2022-10-10T23:13:36.453Z,19.80
2022-10-10T23:16:04.356Z,19.80
2022-10-10T23:18:32.397Z,19.80
2022-10-10T23:21:00.385Z,19.80
2022-10-10T23:23:27.769Z,19.80
2022-10-10T23:25:55.288Z,19.80
2022-10-10T23:28:22.666Z,19.80
2022-10-10T23:30:50.075Z,19.80
2022-10-10T23:33:17.475Z,19.80
2022-10-10T23:35:44.867Z,19.70
2022-10-10T23:38:12.119Z,19.70
2022-10-10T23:40:39.482Z,19.70
2022-10-10T23:43:07.439Z,19.60
2022-10-10T23:45:34.723Z,19.60
2022-10-10T23:48:02.067Z,19.60
2022-10-10T23:50:29.394Z,19.60
2022-10-10T23:52:56.770Z,19.60
2022-10-10T23:55:24.261Z,19.60
2022-10-10T23:57:51.577Z,19.50
